sensor_id;sensor_type;location;lat;lon;timestamp;P1;durP1;ratioP1;P2;durP2;ratioP2
27999;SDS011;15328;50.860;10.562;2023-05-16T00:04:32;5.27;;;4.77;;
27999;SDS011;15328;50.860;10.562;2023-05-16T00:09:32;7.97;;;5.95;;
27999;SDS011;15328;50.860;10.562;2023-05-16T00:14:33;8.23;;;6.47;;
27999;SDS011;15328;50.860;10.562;2023-05-16T00:19:35;7.72;;;6.75;;
27999;SDS011;15328;50.860;10.562;2023-05-16T00:24:36;9.77;;;7.07;;
27999;SDS011;15328;50.860;10.562;2023-05-16T00:29:36;7.33;;;6.00;;
27999;SDS011;15328;50.860;10.562;2023-05-16T00:34:37;7.53;;;6.27;;
27999;SDS011;15328;50.860;10.562;2023-05-16T00:39:37;8.77;;;7.00;;
27999;SDS011;15328;50.860;10.562;2023-05-16T00:44:37;11.00;;;8.30;;
27999;SDS011;15328;50.860;10.562;2023-05-16T00:49:38;9.50;;;7.85;;
27999;SDS011;15328;50.860;10.562;2023-05-16T00:54:38;9.60;;;8.00;;
27999;SDS011;15328;50.860;10.562;2023-05-16T00:59:39;9.77;;;8.13;;
27999;SDS011;15328;50.860;10.562;2023-05-16T01:04:44;9.90;;;8.43;;
27999;SDS011;15328;50.860;10.562;2023-05-16T01:09:45;10.27;;;8.55;;
27999;SDS011;15328;50.860;10.562;2023-05-16T01:14:48;11.70;;;8.65;;
27999;SDS011;15328;50.860;10.562;2023-05-16T01:30:35;13.35;;;11.55;;
27999;SDS011;15328;50.860;10.562;2023-05-16T01:40:58;13.02;;;10.90;;
27999;SDS011;15328;50.860;10.562;2023-05-16T01:46:14;13.88;;;10.85;;
27999;SDS011;15328;50.860;10.562;2023-05-16T01:51:23;13.77;;;11.57;;
27999;SDS011;15328;50.860;10.562;2023-05-16T01:56:29;14.68;;;10.13;;
27999;SDS011;15328;50.860;10.562;2023-05-16T02:01:32;14.82;;;11.38;;
27999;SDS011;15328;50.860;10.562;2023-05-16T02:06:32;14.73;;;11.43;;
27999;SDS011;15328;50.860;10.562;2023-05-16T02:11:32;19.03;;;14.73;;
27999;SDS011;15328;50.860;10.562;2023-05-16T02:16:33;16.95;;;12.32;;
27999;SDS011;15328;50.860;10.562;2023-05-16T02:21:33;22.13;;;14.50;;
27999;SDS011;15328;50.860;10.562;2023-05-16T02:26:34;15.00;;;12.27;;
27999;SDS011;15328;50.860;10.562;2023-05-16T02:31:34;14.70;;;11.98;;
27999;SDS011;15328;50.860;10.562;2023-05-16T02:36:35;18.73;;;15.00;;
27999;SDS011;15328;50.860;10.562;2023-05-16T02:41:35;17.13;;;13.48;;
27999;SDS011;15328;50.860;10.562;2023-05-16T02:46:36;20.00;;;14.63;;
27999;SDS011;15328;50.860;10.562;2023-05-16T02:51:36;16.27;;;13.73;;
27999;SDS011;15328;50.860;10.562;2023-05-16T02:56:37;16.35;;;12.90;;
27999;SDS011;15328;50.860;10.562;2023-05-16T03:01:37;17.63;;;14.18;;
27999;SDS011;15328;50.860;10.562;2023-05-16T03:06:38;17.90;;;13.07;;
27999;SDS011;15328;50.860;10.562;2023-05-16T03:11:38;15.98;;;12.55;;
27999;SDS011;15328;50.860;10.562;2023-05-16T03:16:39;15.70;;;12.40;;
27999;SDS011;15328;50.860;10.562;2023-05-16T03:21:42;15.38;;;12.65;;
27999;SDS011;15328;50.860;10.562;2023-05-16T03:26:42;14.97;;;11.50;;
27999;SDS011;15328;50.860;10.562;2023-05-16T03:31:42;14.87;;;12.17;;
27999;SDS011;15328;50.860;10.562;2023-05-16T03:36:43;16.23;;;12.03;;
27999;SDS011;15328;50.860;10.562;2023-05-16T03:41:43;14.70;;;11.95;;
27999;SDS011;15328;50.860;10.562;2023-05-16T03:46:43;15.48;;;12.93;;
27999;SDS011;15328;50.860;10.562;2023-05-16T03:51:44;17.30;;;12.60;;
27999;SDS011;15328;50.860;10.562;2023-05-16T03:56:44;13.57;;;11.20;;
27999;SDS011;15328;50.860;10.562;2023-05-16T04:01:44;16.10;;;12.17;;
27999;SDS011;15328;50.860;10.562;2023-05-16T04:06:45;16.10;;;11.73;;
27999;SDS011;15328;50.860;10.562;2023-05-16T04:11:45;16.83;;;11.90;;
27999;SDS011;15328;50.860;10.562;2023-05-16T04:16:45;14.38;;;10.57;;
27999;SDS011;15328;50.860;10.562;2023-05-16T04:21:46;15.25;;;11.40;;
27999;SDS011;15328;50.860;10.562;2023-05-16T04:26:46;16.67;;;11.27;;
27999;SDS011;15328;50.860;10.562;2023-05-16T04:31:47;14.68;;;11.32;;
27999;SDS011;15328;50.860;10.562;2023-05-16T04:36:48;13.95;;;10.95;;
27999;SDS011;15328;50.860;10.562;2023-05-16T04:41:48;17.73;;;13.13;;
27999;SDS011;15328;50.860;10.562;2023-05-16T04:46:48;15.25;;;11.25;;
27999;SDS011;15328;50.860;10.562;2023-05-16T04:51:49;13.90;;;11.23;;
27999;SDS011;15328;50.860;10.562;2023-05-16T04:56:49;15.20;;;11.02;;
27999;SDS011;15328;50.860;10.562;2023-05-16T05:01:49;16.10;;;11.98;;
27999;SDS011;15328;50.860;10.562;2023-05-16T05:06:50;13.93;;;10.63;;
27999;SDS011;15328;50.860;10.562;2023-05-16T05:11:50;15.63;;;11.13;;
27999;SDS011;15328;50.860;10.562;2023-05-16T05:16:51;14.45;;;10.48;;
27999;SDS011;15328;50.860;10.562;2023-05-16T05:21:52;12.20;;;9.87;;
27999;SDS011;15328;50.860;10.562;2023-05-16T05:26:52;15.67;;;10.80;;
27999;SDS011;15328;50.860;10.562;2023-05-16T05:31:52;14.95;;;9.88;;
27999;SDS011;15328;50.860;10.562;2023-05-16T05:36:53;13.30;;;9.52;;
27999;SDS011;15328;50.860;10.562;2023-05-16T05:41:53;13.90;;;9.97;;
27999;SDS011;15328;50.860;10.562;2023-05-16T05:46:53;14.30;;;9.98;;
27999;SDS011;15328;50.860;10.562;2023-05-16T05:51:54;12.98;;;9.23;;
27999;SDS011;15328;50.860;10.562;2023-05-16T05:56:57;13.93;;;10.25;;
27999;SDS011;15328;50.860;10.562;2023-05-16T06:01:58;13.15;;;9.90;;
27999;SDS011;15328;50.860;10.562;2023-05-16T06:06:58;12.50;;;9.45;;
27999;SDS011;15328;50.860;10.562;2023-05-16T06:11:58;10.93;;;8.73;;
27999;SDS011;15328;50.860;10.562;2023-05-16T06:16:59;10.77;;;8.53;;
27999;SDS011;15328;50.860;10.562;2023-05-16T06:21:59;10.23;;;8.33;;
27999;SDS011;15328;50.860;10.562;2023-05-16T06:26:59;12.52;;;9.05;;
27999;SDS011;15328;50.860;10.562;2023-05-16T06:32:00;11.50;;;8.30;;
27999;SDS011;15328;50.860;10.562;2023-05-16T06:37:01;9.70;;;7.13;;
27999;SDS011;15328;50.860;10.562;2023-05-16T06:42:02;10.95;;;8.10;;
27999;SDS011;15328;50.860;10.562;2023-05-16T06:47:03;9.80;;;6.82;;
27999;SDS011;15328;50.860;10.562;2023-05-16T06:52:04;8.93;;;6.10;;
27999;SDS011;15328;50.860;10.562;2023-05-16T06:57:04;9.77;;;6.40;;
27999;SDS011;15328;50.860;10.562;2023-05-16T07:02:05;7.75;;;5.95;;
27999;SDS011;15328;50.860;10.562;2023-05-16T07:07:06;6.90;;;4.87;;
27999;SDS011;15328;50.860;10.562;2023-05-16T07:12:09;6.82;;;4.07;;
27999;SDS011;15328;50.860;10.562;2023-05-16T07:17:10;5.30;;;3.58;;
27999;SDS011;15328;50.860;10.562;2023-05-16T07:22:10;4.60;;;2.78;;
27999;SDS011;15328;50.860;10.562;2023-05-16T07:27:11;4.88;;;2.90;;
27999;SDS011;15328;50.860;10.562;2023-05-16T07:32:12;3.88;;;2.45;;
27999;SDS011;15328;50.860;10.562;2023-05-16T07:37:12;4.70;;;2.93;;
27999;SDS011;15328;50.860;10.562;2023-05-16T07:42:13;4.10;;;2.80;;
27999;SDS011;15328;50.860;10.562;2023-05-16T07:47:14;3.00;;;2.47;;
27999;SDS011;15328;50.860;10.562;2023-05-16T07:52:14;3.53;;;2.63;;
27999;SDS011;15328;50.860;10.562;2023-05-16T07:57:15;4.20;;;2.87;;
27999;SDS011;15328;50.860;10.562;2023-05-16T08:02:15;4.95;;;2.75;;
27999;SDS011;15328;50.860;10.562;2023-05-16T08:07:16;5.45;;;3.03;;
27999;SDS011;15328;50.860;10.562;2023-05-16T08:12:16;4.73;;;2.90;;
27999;SDS011;15328;50.860;10.562;2023-05-16T08:17:17;3.45;;;2.60;;
27999;SDS011;15328;50.860;10.562;2023-05-16T08:22:18;2.78;;;2.38;;
27999;SDS011;15328;50.860;10.562;2023-05-16T08:27:18;3.00;;;2.03;;
27999;SDS011;15328;50.860;10.562;2023-05-16T08:32:19;2.30;;;1.55;;
27999;SDS011;15328;50.860;10.562;2023-05-16T08:37:20;1.67;;;1.42;;
27999;SDS011;15328;50.860;10.562;2023-05-16T08:42:20;2.27;;;1.70;;
27999;SDS011;15328;50.860;10.562;2023-05-16T08:47:21;1.80;;;1.40;;
27999;SDS011;15328;50.860;10.562;2023-05-16T08:52:25;2.33;;;1.23;;
27999;SDS011;15328;50.860;10.562;2023-05-16T08:57:28;1.48;;;1.17;;
27999;SDS011;15328;50.860;10.562;2023-05-16T09:02:30;2.28;;;1.48;;
27999;SDS011;15328;50.860;10.562;2023-05-16T09:07:30;2.72;;;1.83;;
27999;SDS011;15328;50.860;10.562;2023-05-16T09:12:31;2.27;;;1.90;;
27999;SDS011;15328;50.860;10.562;2023-05-16T09:17:36;2.53;;;1.80;;
27999;SDS011;15328;50.860;10.562;2023-05-16T09:22:37;3.00;;;1.60;;
27999;SDS011;15328;50.860;10.562;2023-05-16T09:27:39;3.63;;;1.63;;
27999;SDS011;15328;50.860;10.562;2023-05-16T09:32:43;2.63;;;1.48;;
27999;SDS011;15328;50.860;10.562;2023-05-16T09:37:47;3.05;;;1.67;;
27999;SDS011;15328;50.860;10.562;2023-05-16T09:43:02;3.33;;;2.03;;
27999;SDS011;15328;50.860;10.562;2023-05-16T09:48:04;3.08;;;1.70;;
27999;SDS011;15328;50.860;10.562;2023-05-16T09:53:05;3.22;;;2.00;;
27999;SDS011;15328;50.860;10.562;2023-05-16T09:58:06;2.35;;;1.70;;
27999;SDS011;15328;50.860;10.562;2023-05-16T10:03:06;2.67;;;1.80;;
27999;SDS011;15328;50.860;10.562;2023-05-16T10:08:07;3.75;;;1.60;;
27999;SDS011;15328;50.860;10.562;2023-05-16T10:13:08;4.90;;;2.20;;
27999;SDS011;15328;50.860;10.562;2023-05-16T10:18:11;2.78;;;1.70;;
27999;SDS011;15328;50.860;10.562;2023-05-16T10:23:17;7.20;;;2.45;;
27999;SDS011;15328;50.860;10.562;2023-05-16T10:28:18;3.92;;;2.03;;
27999;SDS011;15328;50.860;10.562;2023-05-16T10:33:19;4.78;;;1.98;;
27999;SDS011;15328;50.860;10.562;2023-05-16T10:38:20;4.78;;;1.98;;
27999;SDS011;15328;50.860;10.562;2023-05-16T10:43:24;6.63;;;1.75;;
27999;SDS011;15328;50.860;10.562;2023-05-16T10:48:33;7.10;;;2.13;;
27999;SDS011;15328;50.860;10.562;2023-05-16T10:53:34;5.93;;;1.65;;
27999;SDS011;15328;50.860;10.562;2023-05-16T11:03:35;9.90;;;2.43;;
27999;SDS011;15328;50.860;10.562;2023-05-16T11:08:35;5.67;;;2.00;;
27999;SDS011;15328;50.860;10.562;2023-05-16T11:13:36;3.83;;;1.55;;
27999;SDS011;15328;50.860;10.562;2023-05-16T11:18:53;3.80;;;1.55;;
27999;SDS011;15328;50.860;10.562;2023-05-16T11:29:31;4.07;;;1.48;;
27999;SDS011;15328;50.860;10.562;2023-05-16T11:34:34;5.60;;;1.42;;
27999;SDS011;15328;50.860;10.562;2023-05-16T11:39:36;4.07;;;1.30;;
27999;SDS011;15328;50.860;10.562;2023-05-16T11:44:37;1.70;;;1.03;;
27999;SDS011;15328;50.860;10.562;2023-05-16T11:49:37;6.10;;;1.67;;
27999;SDS011;15328;50.860;10.562;2023-05-16T11:54:38;4.45;;;1.50;;
27999;SDS011;15328;50.860;10.562;2023-05-16T11:59:40;5.40;;;1.23;;
27999;SDS011;15328;50.860;10.562;2023-05-16T12:04:41;6.68;;;1.45;;
27999;SDS011;15328;50.860;10.562;2023-05-16T12:09:51;3.78;;;1.20;;
27999;SDS011;15328;50.860;10.562;2023-05-16T12:14:52;5.03;;;1.27;;
27999;SDS011;15328;50.860;10.562;2023-05-16T12:19:53;5.32;;;1.30;;
27999;SDS011;15328;50.860;10.562;2023-05-16T12:24:54;4.35;;;1.00;;
27999;SDS011;15328;50.860;10.562;2023-05-16T12:29:56;6.90;;;1.27;;
27999;SDS011;15328;50.860;10.562;2023-05-16T12:34:59;4.25;;;1.38;;
27999;SDS011;15328;50.860;10.562;2023-05-16T12:40:01;5.82;;;1.15;;
27999;SDS011;15328;50.860;10.562;2023-05-16T12:45:03;3.50;;;0.90;;
27999;SDS011;15328;50.860;10.562;2023-05-16T12:50:08;5.30;;;1.05;;
27999;SDS011;15328;50.860;10.562;2023-05-16T12:55:18;3.20;;;0.90;;
27999;SDS011;15328;50.860;10.562;2023-05-16T13:00:20;5.65;;;1.00;;
27999;SDS011;15328;50.860;10.562;2023-05-16T13:05:22;3.63;;;1.17;;
27999;SDS011;15328;50.860;10.562;2023-05-16T13:10:22;4.35;;;1.17;;
27999;SDS011;15328;50.860;10.562;2023-05-16T13:15:24;4.20;;;0.90;;
27999;SDS011;15328;50.860;10.562;2023-05-16T13:20:25;5.40;;;1.20;;
27999;SDS011;15328;50.860;10.562;2023-05-16T13:25:25;4.60;;;1.10;;
27999;SDS011;15328;50.860;10.562;2023-05-16T13:30:26;3.63;;;0.82;;
27999;SDS011;15328;50.860;10.562;2023-05-16T13:35:27;3.75;;;0.90;;
27999;SDS011;15328;50.860;10.562;2023-05-16T13:40:28;4.13;;;1.07;;
27999;SDS011;15328;50.860;10.562;2023-05-16T13:45:29;3.17;;;0.95;;
27999;SDS011;15328;50.860;10.562;2023-05-16T13:50:30;5.03;;;1.17;;
27999;SDS011;15328;50.860;10.562;2023-05-16T13:55:31;3.83;;;1.13;;
27999;SDS011;15328;50.860;10.562;2023-05-16T14:00:31;6.43;;;1.23;;
27999;SDS011;15328;50.860;10.562;2023-05-16T14:05:31;3.60;;;0.73;;
27999;SDS011;15328;50.860;10.562;2023-05-16T14:10:32;5.05;;;1.10;;
27999;SDS011;15328;50.860;10.562;2023-05-16T14:15:32;2.97;;;0.95;;
27999;SDS011;15328;50.860;10.562;2023-05-16T14:20:32;5.00;;;1.00;;
27999;SDS011;15328;50.860;10.562;2023-05-16T14:25:33;2.77;;;0.80;;
27999;SDS011;15328;50.860;10.562;2023-05-16T14:30:33;3.58;;;0.70;;
27999;SDS011;15328;50.860;10.562;2023-05-16T14:35:33;7.27;;;1.10;;
27999;SDS011;15328;50.860;10.562;2023-05-16T14:40:34;4.20;;;0.95;;
27999;SDS011;15328;50.860;10.562;2023-05-16T14:45:35;4.35;;;0.88;;
27999;SDS011;15328;50.860;10.562;2023-05-16T14:50:38;3.15;;;0.70;;
27999;SDS011;15328;50.860;10.562;2023-05-16T14:55:39;2.67;;;0.80;;
27999;SDS011;15328;50.860;10.562;2023-05-16T15:00:39;1.83;;;0.60;;
27999;SDS011;15328;50.860;10.562;2023-05-16T15:05:40;3.67;;;0.77;;
27999;SDS011;15328;50.860;10.562;2023-05-16T15:10:40;1.88;;;0.80;;
27999;SDS011;15328;50.860;10.562;2023-05-16T15:15:41;2.07;;;0.60;;
27999;SDS011;15328;50.860;10.562;2023-05-16T15:20:41;2.87;;;0.80;;
27999;SDS011;15328;50.860;10.562;2023-05-16T15:25:41;2.33;;;0.70;;
27999;SDS011;15328;50.860;10.562;2023-05-16T15:30:42;2.43;;;0.60;;
27999;SDS011;15328;50.860;10.562;2023-05-16T15:35:42;2.23;;;0.73;;
27999;SDS011;15328;50.860;10.562;2023-05-16T15:40:42;2.37;;;0.70;;
27999;SDS011;15328;50.860;10.562;2023-05-16T15:45:43;4.00;;;0.80;;
27999;SDS011;15328;50.860;10.562;2023-05-16T15:50:44;2.67;;;0.80;;
27999;SDS011;15328;50.860;10.562;2023-05-16T15:55:44;2.50;;;0.87;;
27999;SDS011;15328;50.860;10.562;2023-05-16T16:00:46;3.35;;;0.85;;
27999;SDS011;15328;50.860;10.562;2023-05-16T16:05:47;2.22;;;0.55;;
27999;SDS011;15328;50.860;10.562;2023-05-16T16:10:48;2.80;;;0.85;;
27999;SDS011;15328;50.860;10.562;2023-05-16T16:15:49;2.73;;;1.17;;
27999;SDS011;15328;50.860;10.562;2023-05-16T16:20:49;12.02;;;6.25;;
27999;SDS011;15328;50.860;10.562;2023-05-16T16:25:51;33.30;;;17.58;;
27999;SDS011;15328;50.860;10.562;2023-05-16T16:30:52;9.85;;;3.25;;
27999;SDS011;15328;50.860;10.562;2023-05-16T16:35:53;5.65;;;2.85;;
27999;SDS011;15328;50.860;10.562;2023-05-16T16:40:56;3.00;;;1.50;;
27999;SDS011;15328;50.860;10.562;2023-05-16T16:45:56;3.30;;;1.10;;
27999;SDS011;15328;50.860;10.562;2023-05-16T16:50:56;4.13;;;0.73;;
27999;SDS011;15328;50.860;10.562;2023-05-16T16:55:57;2.37;;;0.50;;
27999;SDS011;15328;50.860;10.562;2023-05-16T17:00:57;2.28;;;0.60;;
27999;SDS011;15328;50.860;10.562;2023-05-16T17:05:58;2.35;;;0.77;;
27999;SDS011;15328;50.860;10.562;2023-05-16T17:10:58;4.82;;;0.90;;
27999;SDS011;15328;50.860;10.562;2023-05-16T17:16:02;2.03;;;0.60;;
27999;SDS011;15328;50.860;10.562;2023-05-16T17:21:03;2.90;;;0.70;;
27999;SDS011;15328;50.860;10.562;2023-05-16T17:26:03;2.15;;;0.70;;
27999;SDS011;15328;50.860;10.562;2023-05-16T17:31:04;1.90;;;0.60;;
27999;SDS011;15328;50.860;10.562;2023-05-16T17:36:05;3.08;;;0.85;;
27999;SDS011;15328;50.860;10.562;2023-05-16T17:41:06;3.05;;;0.80;;
27999;SDS011;15328;50.860;10.562;2023-05-16T17:46:06;4.73;;;0.80;;
27999;SDS011;15328;50.860;10.562;2023-05-16T17:51:07;3.35;;;1.08;;
27999;SDS011;15328;50.860;10.562;2023-05-16T17:56:07;2.25;;;0.90;;
27999;SDS011;15328;50.860;10.562;2023-05-16T18:01:08;1.92;;;0.70;;
27999;SDS011;15328;50.860;10.562;2023-05-16T18:06:09;2.47;;;0.82;;
27999;SDS011;15328;50.860;10.562;2023-05-16T18:11:10;2.15;;;0.80;;
27999;SDS011;15328;50.860;10.562;2023-05-16T18:16:11;2.58;;;0.82;;
27999;SDS011;15328;50.860;10.562;2023-05-16T18:21:11;1.43;;;0.67;;
27999;SDS011;15328;50.860;10.562;2023-05-16T18:26:11;2.27;;;0.70;;
27999;SDS011;15328;50.860;10.562;2023-05-16T18:31:12;2.20;;;0.75;;
27999;SDS011;15328;50.860;10.562;2023-05-16T18:36:12;2.80;;;0.90;;
27999;SDS011;15328;50.860;10.562;2023-05-16T18:41:13;4.13;;;0.90;;
27999;SDS011;15328;50.860;10.562;2023-05-16T18:46:14;4.68;;;1.00;;
27999;SDS011;15328;50.860;10.562;2023-05-16T18:51:14;3.97;;;1.13;;
27999;SDS011;15328;50.860;10.562;2023-05-16T18:56:14;5.50;;;0.93;;
27999;SDS011;15328;50.860;10.562;2023-05-16T19:01:15;1.85;;;0.95;;
27999;SDS011;15328;50.860;10.562;2023-05-16T19:06:15;1.52;;;0.65;;
27999;SDS011;15328;50.860;10.562;2023-05-16T19:11:16;3.13;;;1.00;;
27999;SDS011;15328;50.860;10.562;2023-05-16T19:16:16;2.97;;;0.95;;
27999;SDS011;15328;50.860;10.562;2023-05-16T19:21:17;2.67;;;0.60;;
27999;SDS011;15328;50.860;10.562;2023-05-16T19:26:17;3.70;;;0.70;;
27999;SDS011;15328;50.860;10.562;2023-05-16T19:31:18;3.22;;;0.90;;
27999;SDS011;15328;50.860;10.562;2023-05-16T19:36:18;1.70;;;0.77;;
27999;SDS011;15328;50.860;10.562;2023-05-16T19:41:18;2.30;;;1.00;;
27999;SDS011;15328;50.860;10.562;2023-05-16T19:46:19;3.40;;;1.10;;
27999;SDS011;15328;50.860;10.562;2023-05-16T19:51:20;4.43;;;2.13;;
27999;SDS011;15328;50.860;10.562;2023-05-16T19:56:21;5.47;;;2.58;;
27999;SDS011;15328;50.860;10.562;2023-05-16T20:01:22;5.43;;;1.88;;
27999;SDS011;15328;50.860;10.562;2023-05-16T20:06:22;6.90;;;2.67;;
27999;SDS011;15328;50.860;10.562;2023-05-16T20:11:22;6.13;;;2.03;;
27999;SDS011;15328;50.860;10.562;2023-05-16T20:16:23;4.63;;;1.85;;
27999;SDS011;15328;50.860;10.562;2023-05-16T20:21:23;6.32;;;2.38;;
27999;SDS011;15328;50.860;10.562;2023-05-16T20:26:24;5.95;;;1.80;;
27999;SDS011;15328;50.860;10.562;2023-05-16T20:31:24;8.07;;;2.20;;
27999;SDS011;15328;50.860;10.562;2023-05-16T20:36:25;9.03;;;3.03;;
27999;SDS011;15328;50.860;10.562;2023-05-16T20:41:25;10.20;;;3.00;;
27999;SDS011;15328;50.860;10.562;2023-05-16T20:46:25;10.70;;;2.90;;
27999;SDS011;15328;50.860;10.562;2023-05-16T20:51:26;11.00;;;3.42;;
27999;SDS011;15328;50.860;10.562;2023-05-16T20:56:26;11.70;;;3.03;;
27999;SDS011;15328;50.860;10.562;2023-05-16T21:01:27;9.93;;;2.65;;
27999;SDS011;15328;50.860;10.562;2023-05-16T21:06:28;6.35;;;1.88;;
27999;SDS011;15328;50.860;10.562;2023-05-16T21:11:28;8.03;;;2.10;;
27999;SDS011;15328;50.860;10.562;2023-05-16T21:16:31;7.07;;;2.00;;
27999;SDS011;15328;50.860;10.562;2023-05-16T21:21:31;7.45;;;2.60;;
27999;SDS011;15328;50.860;10.562;2023-05-16T21:26:32;6.73;;;2.37;;
27999;SDS011;15328;50.860;10.562;2023-05-16T21:31:32;5.87;;;2.37;;
27999;SDS011;15328;50.860;10.562;2023-05-16T21:36:32;6.90;;;1.60;;
27999;SDS011;15328;50.860;10.562;2023-05-16T21:41:33;6.03;;;1.20;;
27999;SDS011;15328;50.860;10.562;2023-05-16T21:46:33;3.40;;;1.10;;
27999;SDS011;15328;50.860;10.562;2023-05-16T21:51:33;1.93;;;0.87;;
27999;SDS011;15328;50.860;10.562;2023-05-16T21:56:34;3.63;;;0.80;;
27999;SDS011;15328;50.860;10.562;2023-05-16T22:01:34;1.80;;;0.60;;
27999;SDS011;15328;50.860;10.562;2023-05-16T22:06:35;2.55;;;0.93;;
27999;SDS011;15328;50.860;10.562;2023-05-16T22:11:35;4.20;;;0.80;;
27999;SDS011;15328;50.860;10.562;2023-05-16T22:16:35;2.53;;;0.77;;
27999;SDS011;15328;50.860;10.562;2023-05-16T22:21:36;1.40;;;0.68;;
27999;SDS011;15328;50.860;10.562;2023-05-16T22:26:36;3.10;;;0.90;;
27999;SDS011;15328;50.860;10.562;2023-05-16T22:31:36;2.85;;;0.80;;
27999;SDS011;15328;50.860;10.562;2023-05-16T22:36:37;2.87;;;0.70;;
27999;SDS011;15328;50.860;10.562;2023-05-16T22:41:38;3.63;;;1.00;;
27999;SDS011;15328;50.860;10.562;2023-05-16T22:46:38;2.40;;;0.73;;
27999;SDS011;15328;50.860;10.562;2023-05-16T22:51:39;2.33;;;0.90;;
27999;SDS011;15328;50.860;10.562;2023-05-16T22:56:39;3.15;;;0.90;;
27999;SDS011;15328;50.860;10.562;2023-05-16T23:01:39;2.72;;;0.90;;
27999;SDS011;15328;50.860;10.562;2023-05-16T23:06:40;2.63;;;0.90;;
27999;SDS011;15328;50.860;10.562;2023-05-16T23:11:40;2.87;;;1.17;;
27999;SDS011;15328;50.860;10.562;2023-05-16T23:16:40;2.27;;;1.00;;
27999;SDS011;15328;50.860;10.562;2023-05-16T23:21:41;5.70;;;1.15;;
27999;SDS011;15328;50.860;10.562;2023-05-16T23:26:41;3.72;;;1.30;;
27999;SDS011;15328;50.860;10.562;2023-05-16T23:31:42;3.37;;;1.10;;
27999;SDS011;15328;50.860;10.562;2023-05-16T23:36:42;3.60;;;0.98;;
27999;SDS011;15328;50.860;10.562;2023-05-16T23:41:42;5.68;;;1.00;;
27999;SDS011;15328;50.860;10.562;2023-05-16T23:46:43;4.00;;;1.00;;
27999;SDS011;15328;50.860;10.562;2023-05-16T23:51:43;3.07;;;1.20;;
27999;SDS011;15328;50.860;10.562;2023-05-16T23:56:43;3.77;;;1.30;;
